Time;durP1;ratioP1;P1;durP2;ratioP2;P2;SDS_P1;SDS_P2;PMS_P1;PMS_P2;Temp;Humidity;BMP_temperature;BMP_pressure;BME280_temperature;BME280_humidity;BME280_pressure;Samples;Min_cycle;Max_cycle;Signal;HPM_P1;HPM_P2
2022/04/30 00:00:00;;;;;;;11.95;8.57;;;;;;;9.32;55.07;103092.41;5171659;28;20848;-44
2022/04/30 00:02:33;;;;;;;12.40;8.40;;;;;;;9.32;55.02;103097.69;5174429;28;20462;-45
2022/04/30 00:05:06;;;;;;;16.58;9.30;;;;;;;9.33;55.03;103099.41;5179397;28;20911;-44
2022/04/30 00:07:39;;;;;;;11.32;7.70;;;;;;;9.27;55.08;103083.91;5170908;28;20759;-45
2022/04/30 00:10:13;;;;;;;18.52;7.90;;;;;;;9.33;55.05;103091.50;5167783;28;20785;-43
2022/04/30 00:12:46;;;;;;;12.20;8.63;;;;;;;9.18;55.15;103074.72;5169511;28;20461;-41
2022/04/30 00:15:19;;;;;;;15.17;8.80;;;;;;;9.28;55.10;103085.63;5167595;28;20541;-48
2022/04/30 00:17:51;;;;;;;15.90;9.25;;;;;;;9.27;55.10;103083.91;5171771;28;20518;-45
2022/04/30 00:20:24;;;;;;;11.50;7.90;;;;;;;9.31;55.08;103085.44;5170916;28;20432;-44
2022/04/30 00:22:57;;;;;;;12.43;8.13;;;;;;;9.31;55.16;103081.00;5173433;28;20777;-46
2022/04/30 00:25:30;;;;;;;11.23;8.25;;;;;;;8.67;54.93;102995.84;5175659;28;20409;-43
2022/04/30 00:28:04;;;;;;;11.65;7.65;;;;;;;9.29;55.28;103082.03;5167439;28;20883;-45
2022/04/30 00:30:36;;;;;;;12.90;8.75;;;;;;;9.20;55.36;103065.81;5173408;28;20864;-45
2022/04/30 00:33:09;;;;;;;11.52;8.60;;;;;;;9.07;55.17;103051.59;5175732;28;20504;-48
2022/04/30 00:35:42;;;;;;;12.73;9.15;;;;;;;9.27;55.39;103083.91;5173119;28;20783;-46
2022/04/30 00:38:15;;;;;;;18.23;9.17;;;;;;;9.18;55.47;103075.56;5176834;28;20458;-48
2022/04/30 00:40:48;;;;;;;14.00;8.77;;;;;;;9.22;55.65;103079.72;5171674;28;20423;-46
2022/04/30 00:43:21;;;;;;;13.73;9.03;;;;;;;9.04;55.72;103050.91;5175897;28;20479;-45
2022/04/30 00:45:54;;;;;;;16.05;9.35;;;;;;;9.06;55.77;103056.97;5174718;28;20924;-48
2022/04/30 00:48:28;;;;;;;15.65;9.85;;;;;;;9.16;55.70;103061.63;5176130;28;20736;-46
2022/04/30 00:51:01;;;;;;;14.48;9.65;;;;;;;9.26;55.90;103069.00;5174157;28;20470;-48
2022/04/30 00:53:34;;;;;;;13.05;9.48;;;;;;;9.28;56.06;103075.06;5174949;28;20434;-45
2022/04/30 00:56:09;;;;;;;16.23;9.50;;;;;;;9.27;55.98;103065.47;5176249;28;20417;-46
2022/04/30 00:58:46;;;;;;;14.45;8.93;;;;;;;9.31;55.92;103070.47;5176499;28;20770;-44
2022/04/30 01:01:20;;;;;;;13.85;9.27;;;;;;;9.28;55.91;103061.88;5175720;28;20430;-44
2022/04/30 01:03:53;;;;;;;14.97;9.30;;;;;;;9.26;56.01;103066.38;5175833;28;20419;-47
2022/04/30 01:06:53;;;;;;;10.75;8.43;;;;;;;9.14;56.17;103041.59;5174308;28;20458;-46
2022/04/30 01:09:28;;;;;;;11.68;8.18;;;;;;;9.24;56.02;103063.84;5177147;28;20428;-45
2022/04/30 01:12:04;;;;;;;12.07;9.18;;;;;;;9.18;56.17;103057.13;5173188;28;20421;-48
2022/04/30 01:14:40;;;;;;;14.10;9.65;;;;;;;9.18;56.01;103054.50;5173088;28;20443;-48
2022/04/30 01:17:13;;;;;;;21.35;8.93;;;;;;;9.19;56.22;103065.88;5173780;28;20414;-46
2022/04/30 01:19:47;;;;;;;16.45;9.30;;;;;;;9.21;56.23;103054.31;5171704;28;20822;-45
2022/04/30 01:22:25;;;;;;;15.75;9.52;;;;;;;9.20;56.21;103057.06;5173226;28;20438;-44
2022/04/30 01:25:01;;;;;;;12.63;8.60;;;;;;;9.18;56.58;103053.63;5173020;28;20424;-45
2022/04/30 01:27:36;;;;;;;12.55;8.45;;;;;;;9.14;56.44;103041.59;5178004;28;20412;-47
2022/04/30 01:30:13;;;;;;;14.00;7.70;;;;;;;9.19;56.39;103043.00;5177478;28;20768;-44
2022/04/30 01:38:27;;;;;;;13.00;7.93;;;;;;;9.31;56.62;103044.09;5173336;28;20938;-43
2022/04/30 01:41:01;;;;;;;13.57;8.02;;;;;;;9.37;56.37;103050.81;5176604;28;20432;-46
2022/04/30 01:43:34;;;;;;;10.00;8.10;;;;;;;9.44;56.38;103044.25;5174091;28;20522;-45
2022/04/30 01:46:07;;;;;;;11.02;7.25;;;;;;;9.52;56.36;103044.66;5173692;28;20450;-44
2022/04/30 01:48:40;;;;;;;12.40;6.90;;;;;;;9.58;56.37;103041.66;5173903;28;20415;-46
2022/04/30 01:51:14;;;;;;;10.85;6.82;;;;;;;9.60;56.23;103037.16;5174745;28;20495;-45
2022/04/30 01:53:46;;;;;;;12.52;7.32;;;;;;;9.65;56.26;103039.50;5170211;28;20407;-47
2022/04/30 01:56:20;;;;;;;9.63;7.85;;;;;;;9.69;56.26;103033.09;5172962;28;20566;-47
2022/04/30 01:58:52;;;;;;;13.35;7.38;;;;;;;9.73;56.38;103033.81;5172435;28;20616;-50
2022/04/30 02:01:25;;;;;;;12.10;6.80;;;;;;;9.79;56.24;103025.53;5174600;28;20430;-50
2022/04/30 02:03:58;;;;;;;14.60;7.45;;;;;;;9.83;56.23;103024.38;5176232;28;20466;-46
2022/04/30 02:06:30;;;;;;;10.63;6.70;;;;;;;9.79;56.17;103007.91;5174633;28;21845;-45
2022/04/30 02:09:03;;;;;;;10.40;7.00;;;;;;;9.91;56.34;103019.50;5174019;28;20969;-47
2022/04/30 02:11:38;;;;;;;13.25;7.07;;;;;;;9.95;56.03;103012.25;5173061;28;20595;-46
2022/04/30 02:14:14;;;;;;;10.03;6.83;;;;;;;9.95;56.25;103013.09;5172348;28;20893;-44
2022/04/30 02:16:47;;;;;;;12.70;6.80;;;;;;;9.91;56.22;103006.31;5168882;28;20451;-47
2022/04/30 02:19:23;;;;;;;15.00;7.82;;;;;;;9.99;56.15;103004.03;5173601;28;20424;-44
2022/04/30 02:21:58;;;;;;;9.13;6.73;;;;;;;10.03;56.09;103008.19;5180084;28;20506;-45
2022/04/30 02:24:30;;;;;;;8.63;6.07;;;;;;;10.10;56.10;103008.69;5187982;28;20918;-44
2022/04/30 02:27:05;;;;;;;10.40;7.25;;;;;;;10.06;55.93;103009.78;5171778;28;20413;-46
2022/04/30 02:29:39;;;;;;;10.88;7.13;;;;;;;10.11;56.08;103005.94;5171967;28;20513;-47
2022/04/30 02:32:13;;;;;;;11.93;6.97;;;;;;;10.10;55.99;102998.97;5184107;28;20442;-45
2022/04/30 02:34:45;;;;;;;10.63;7.30;;;;;;;10.15;56.16;102999.50;5187479;28;20420;-43
2022/04/30 02:37:21;;;;;;;10.85;7.00;;;;;;;10.20;56.18;103006.31;5167537;28;20880;-44
2022/04/30 02:39:54;;;;;;;9.67;6.43;;;;;;;10.18;56.07;102998.47;5167740;28;20513;-46
2022/04/30 02:42:27;;;;;;;9.07;6.72;;;;;;;10.24;56.17;103002.53;5175920;28;20961;-46
2022/04/30 02:45:00;;;;;;;9.90;6.85;;;;;;;10.27;55.93;102997.09;5170595;28;20456;-44
2022/04/30 02:47:33;;;;;;;12.73;7.13;;;;;;;10.28;56.04;102990.88;5172344;28;20821;-48
2022/04/30 02:50:08;;;;;;;14.43;7.00;;;;;;;10.30;55.86;102987.19;5179209;28;22358;-46
2022/04/30 02:52:42;;;;;;;11.00;6.65;;;;;;;10.12;56.01;102949.53;5168195;28;20415;-47
2022/04/30 02:55:15;;;;;;;8.98;6.07;;;;;;;10.37;56.25;102987.66;5175192;28;20433;-46
2022/04/30 03:00:43;;;;;;;10.95;6.05;;;;;;;10.28;56.20;102970.63;5171905;28;20440;-45
2022/04/30 03:03:17;;;;;;;9.85;6.10;;;;;;;10.36;56.13;102975.41;5167856;28;20500;-41
2022/04/30 03:05:51;;;;;;;10.02;5.57;;;;;;;10.39;56.12;102985.78;5169766;28;20834;-44
2022/04/30 03:08:26;;;;;;;9.60;5.90;;;;;;;10.41;56.05;102983.06;5170876;28;20412;-44
2022/04/30 03:11:00;;;;;;;10.50;5.88;;;;;;;10.41;56.06;102981.25;5172866;28;20432;-47
2022/04/30 03:13:35;;;;;;;10.32;5.63;;;;;;;10.43;55.93;102979.34;5175864;28;20926;-45
2022/04/30 03:21:49;;;;;;;9.68;5.07;;;;;;;10.40;56.00;102976.91;5170447;28;20435;-44
2022/04/30 03:24:22;;;;;;;8.48;5.50;;;;;;;10.41;55.95;102975.97;5173457;28;20791;-48
2022/04/30 03:26:54;;;;;;;9.65;5.57;;;;;;;10.39;55.96;102973.41;5176764;28;20466;-47
2022/04/30 03:29:31;;;;;;;8.60;5.68;;;;;;;10.41;56.01;102981.25;5172681;28;20551;-46
2022/04/30 03:32:06;;;;;;;8.65;5.63;;;;;;;10.41;56.10;102975.13;5169989;28;20483;-44
2022/04/30 03:34:38;;;;;;;8.50;5.45;;;;;;;10.31;55.98;102965.16;5169692;28;20411;-43
2022/04/30 03:37:11;;;;;;;13.98;5.60;;;;;;;10.41;56.09;102972.50;5161316;28;20519;-45
2022/04/30 03:39:43;;;;;;;11.10;5.38;;;;;;;10.45;55.99;102974.84;5172287;28;20419;-43
2022/04/30 03:42:15;;;;;;;11.80;5.60;;;;;;;10.50;55.79;102971.88;5170837;28;20496;-46
2022/04/30 03:44:49;;;;;;;9.88;5.60;;;;;;;10.52;55.81;102968.19;5169365;28;20423;-45
2022/04/30 03:47:22;;;;;;;13.82;5.82;;;;;;;10.54;55.80;102968.97;5171724;28;20471;-48
2022/04/30 03:49:54;;;;;;;12.40;5.80;;;;;;;10.53;55.71;102956.72;5174092;28;20417;-45
2022/04/30 03:52:26;;;;;;;9.20;6.43;;;;;;;10.51;55.76;102958.59;5170767;28;20976;-44
2022/04/30 03:54:59;;;;;;;12.82;5.65;;;;;;;10.51;55.83;102947.19;5172404;28;20911;-45
2022/04/30 03:57:31;;;;;;;10.65;6.32;;;;;;;10.56;55.58;102958.28;5174833;28;20439;-47
2022/04/30 04:00:08;;;;;;;8.98;5.47;;;;;;;10.59;55.55;102958.09;5172115;28;20431;-46
2022/04/30 04:02:42;;;;;;;11.05;5.93;;;;;;;10.64;55.53;102952.53;5172340;28;20497;-44
2022/04/30 04:05:16;;;;;;;8.85;5.93;;;;;;;10.58;55.50;102944.03;5169190;28;20424;-45
2022/04/30 04:07:48;;;;;;;9.57;6.03;;;;;;;10.60;55.42;102944.78;5168969;28;21089;-45
2022/04/30 04:10:21;;;;;;;9.75;5.80;;;;;;;10.69;55.44;102955.72;5172394;28;20854;-44
2022/04/30 04:17:37;;;;;;;13.00;6.63;;;;;;;10.72;55.30;102950.25;5167637;28;20424;-46
2022/04/30 04:18:43;;;;;;;9.50;6.32;;;;;;;10.73;55.05;102946.66;5170685;28;20417;-47
2022/04/30 04:21:16;;;;;;;12.07;6.38;;;;;;;10.75;55.09;102955.34;5170727;28;20956;-41
2022/04/30 04:26:41;;;;;;;11.05;6.95;;;;;;;10.78;55.01;102955.13;5146294;28;20457;-47
2022/04/30 04:29:16;;;;;;;12.23;7.10;;;;;;;10.78;54.96;102955.97;5175410;28;20498;-46
2022/04/30 04:31:49;;;;;;;11.93;7.60;;;;;;;10.83;54.83;102958.31;5167925;28;20440;-46
2022/04/30 04:34:22;;;;;;;10.30;7.07;;;;;;;10.86;54.71;102958.13;5151611;28;20817;-47
2022/04/30 04:36:55;;;;;;;11.77;6.93;;;;;;;10.88;54.77;102950.09;5169576;28;20860;-45
2022/04/30 04:39:27;;;;;;;13.50;8.40;;;;;;;10.90;54.71;102949.06;5168058;28;20487;-46
2022/04/30 04:41:59;;;;;;;16.27;8.48;;;;;;;10.91;54.65;102956.03;5171710;28;20490;-44
2022/04/30 04:44:32;;;;;;;13.90;9.00;;;;;;;10.92;54.35;102949.78;5169405;28;20802;-46
2022/04/30 04:47:06;;;;;;;17.63;9.38;;;;;;;10.92;54.68;102952.44;5173809;28;20891;-44
2022/04/30 04:49:39;;;;;;;13.90;8.20;;;;;;;10.87;54.39;102938.69;5171267;28;20419;-45
2022/04/30 04:52:14;;;;;;;15.03;7.63;;;;;;;10.90;54.54;102945.53;5170405;28;20820;-46
2022/04/30 04:54:46;;;;;;;12.40;7.07;;;;;;;10.99;54.64;102956.34;5171509;28;20430;-42
2022/04/30 04:57:18;;;;;;;13.90;6.97;;;;;;;11.00;54.49;102950.16;5176795;28;20433;-48
2022/04/30 04:59:51;;;;;;;16.45;7.55;;;;;;;10.97;54.44;102953.00;5171006;28;20473;-50
2022/04/30 05:02:25;;;;;;;16.53;8.33;;;;;;;11.02;54.54;102953.50;5170008;28;20425;-48
2022/04/30 05:04:57;;;;;;;10.13;7.78;;;;;;;11.00;54.51;102952.78;5171497;28;20431;-43
2022/04/30 05:07:29;;;;;;;15.15;7.68;;;;;;;11.06;54.54;102960.31;5170575;28;20588;-48
2022/04/30 05:10:02;;;;;;;14.48;8.77;;;;;;;10.45;54.49;102889.44;5173553;28;20423;-47
2022/04/30 05:12:35;;;;;;;14.30;7.45;;;;;;;11.08;54.54;102962.84;5176652;28;20420;-48
2022/04/30 05:15:11;;;;;;;18.88;7.97;;;;;;;11.11;54.49;102972.38;5171507;28;20499;-47
2022/04/30 05:17:45;;;;;;;14.68;8.27;;;;;;;11.12;54.46;102963.47;5172991;28;20748;-46
2022/04/30 05:20:17;;;;;;;14.93;7.93;;;;;;;11.14;54.34;102966.88;5172730;28;20466;-48
2022/04/30 05:22:49;;;;;;;15.40;7.53;;;;;;;11.11;54.43;102962.63;5171811;28;20481;-46
2022/04/30 05:25:22;;;;;;;11.07;7.03;;;;;;;11.08;54.46;102961.03;5173595;28;20836;-44
2022/04/30 05:27:54;;;;;;;10.73;7.05;;;;;;;11.07;54.34;102951.44;5177482;28;20419;-45
2022/04/30 05:30:27;;;;;;;15.32;7.38;;;;;;;11.17;54.38;102969.31;5176077;28;20781;-49
2022/04/30 05:33:01;;;;;;;12.97;7.17;;;;;;;11.22;54.51;102959.31;5172842;28;20773;-49
2022/04/30 05:35:34;;;;;;;12.55;7.00;;;;;;;11.21;54.50;102957.59;5171723;28;20756;-44
2022/04/30 05:38:07;;;;;;;11.18;6.75;;;;;;;11.21;54.44;102958.47;5174255;28;20568;-44
2022/04/30 05:40:39;;;;;;;10.38;6.97;;;;;;;11.26;54.40;102966.06;5172160;28;20423;-45
2022/04/30 05:43:12;;;;;;;12.85;5.97;;;;;;;11.25;54.40;102967.88;5172952;28;20441;-46
2022/04/30 05:45:44;;;;;;;16.13;6.90;;;;;;;11.26;54.39;102955.50;5169990;28;20937;-49
2022/04/30 05:48:18;;;;;;;13.32;7.30;;;;;;;11.38;54.34;102972.34;5175308;28;20426;-43
2022/04/30 05:50:52;;;;;;;11.73;6.03;;;;;;;11.31;54.32;102964.81;5174699;28;20457;-48
2022/04/30 05:53:24;;;;;;;14.65;6.85;;;;;;;11.33;54.29;102956.78;5173368;28;20466;-48
2022/04/30 05:55:56;;;;;;;13.77;5.82;;;;;;;11.35;54.34;102962.81;5173172;28;20527;-45
2022/04/30 05:58:29;;;;;;;10.90;6.10;;;;;;;11.42;54.44;102961.44;5174238;28;20927;-47
2022/04/30 06:01:03;;;;;;;16.57;6.50;;;;;;;11.51;54.29;102963.47;5173130;28;20568;-47
2022/04/30 06:03:37;;;;;;;9.10;6.13;;;;;;;11.38;54.26;102922.94;5171923;28;20770;-45
2022/04/30 06:06:10;;;;;;;11.75;6.78;;;;;;;11.69;54.21;102960.53;5175587;28;20767;-48
2022/04/30 06:08:42;;;;;;;9.15;5.72;;;;;;;12.40;53.90;102949.38;5168428;28;20417;-49
2022/04/30 06:11:15;;;;;;;16.08;5.90;;;;;;;13.24;53.28;102960.88;5168309;28;20405;-48
2022/04/30 06:13:47;;;;;;;11.43;5.72;;;;;;;14.12;52.48;102952.38;5182180;28;20766;-47
2022/04/30 06:16:20;;;;;;;7.03;4.90;;;;;;;15.19;51.41;102933.00;5166724;28;20424;-45
2022/04/30 06:18:54;;;;;;;10.77;4.60;;;;;;;17.04;49.75;102950.56;5175737;28;20899;-48
2022/04/30 06:21:26;;;;;;;11.30;4.82;;;;;;;18.71;47.91;102955.19;5172126;28;20437;-47
2022/04/30 06:23:59;;;;;;;6.28;4.18;;;;;;;20.02;46.22;102910.63;5186629;28;20411;-49
2022/04/30 06:26:32;;;;;;;8.35;3.83;;;;;;;21.64;44.90;102964.69;5183703;28;20485;-48
2022/04/30 06:29:05;;;;;;;9.05;3.55;;;;;;;22.74;43.49;102952.09;5176976;28;20845;-50
2022/04/30 06:31:38;;;;;;;6.82;3.60;;;;;;;23.64;42.06;102955.88;5184689;28;20406;-52
2022/04/30 06:34:14;;;;;;;10.70;3.70;;;;;;;24.39;41.28;102952.94;5186270;28;20425;-51
2022/04/30 06:36:47;;;;;;;5.38;3.20;;;;;;;24.78;40.68;102949.03;5183153;28;20434;-53
2022/04/30 06:39:20;;;;;;;7.03;3.05;;;;;;;24.72;40.35;102948.97;5186232;28;20418;-51
2022/04/30 06:41:52;;;;;;;9.25;4.18;;;;;;;24.22;40.45;102938.00;5176833;28;20423;-53
2022/04/30 06:44:25;;;;;;;7.00;3.60;;;;;;;24.05;40.30;102940.06;5167172;28;20429;-51
2022/04/30 06:46:58;;;;;;;7.13;3.67;;;;;;;23.86;40.10;102944.19;5172147;28;20415;-51
2022/04/30 06:49:32;;;;;;;8.07;3.40;;;;;;;24.65;39.31;102938.06;5167999;28;20973;-54
2022/04/30 06:52:05;;;;;;;8.40;4.00;;;;;;;25.37;38.28;102936.22;5176716;28;20502;-53
2022/04/30 06:57:27;;;;;;;10.05;3.38;;;;;;;26.21;36.92;102938.75;5167033;28;20889;-52
2022/04/30 07:00:39;;;;;;;7.07;3.55;;;;;;;26.01;36.74;102933.25;5166668;28;20435;-54
2022/04/30 07:02:52;;;;;;;7.68;3.05;;;;;;;25.07;37.23;102926.38;5168831;28;20926;-54
2022/04/30 07:05:26;;;;;;;5.43;2.53;;;;;;;24.05;37.72;102936.53;5169185;28;20433;-50
2022/04/30 07:07:59;;;;;;;7.18;3.03;;;;;;;23.13;38.19;102936.81;5177339;28;20520;-51
2022/04/30 07:10:31;;;;;;;7.20;2.90;;;;;;;22.26;38.63;102934.38;5178187;28;20418;-50
2022/04/30 07:13:04;;;;;;;6.43;3.35;;;;;;;21.47;39.03;102937.00;5170201;28;20486;-49
2022/04/30 07:15:36;;;;;;;5.78;3.50;;;;;;;20.82;39.25;102929.78;5171446;28;20869;-51
2022/04/30 07:18:08;;;;;;;6.80;3.75;;;;;;;20.18;39.30;102899.94;5172447;28;20854;-52
2022/04/30 07:20:42;;;;;;;11.80;4.10;;;;;;;20.46;39.25;102934.56;5168658;28;20438;-52
2022/04/30 07:23:15;;;;;;;7.22;4.35;;;;;;;21.21;38.77;102928.25;5168156;28;20541;-52
2022/04/30 07:25:47;;;;;;;7.88;4.00;;;;;;;21.59;38.41;102929.44;5167853;28;20820;-53
2022/04/30 07:28:22;;;;;;;9.65;3.97;;;;;;;21.54;38.23;102934.47;5170795;28;20515;-56
2022/04/30 07:30:56;;;;;;;9.20;3.20;;;;;;;21.12;38.28;102941.72;5168804;28;20422;-52
2022/04/30 07:33:29;;;;;;;10.00;3.03;;;;;;;20.53;38.62;102938.28;5167881;28;20499;-51
2022/04/30 07:36:03;;;;;;;5.07;2.53;;;;;;;19.81;38.97;102944.03;5171980;28;20435;-50
2022/04/30 07:38:35;;;;;;;5.38;3.05;;;;;;;19.22;39.32;102937.59;5169624;28;20577;-48
2022/04/30 07:41:08;;;;;;;5.13;3.03;;;;;;;18.40;39.78;102907.38;5171563;28;20745;-51
2022/04/30 07:43:40;;;;;;;6.60;3.28;;;;;;;18.21;39.97;102944.97;5169048;28;20460;-49
2022/04/30 07:46:13;;;;;;;7.40;2.95;;;;;;;17.89;40.23;102948.88;5171544;28;20423;-49
2022/04/30 07:48:45;;;;;;;5.78;2.92;;;;;;;17.55;40.16;102942.34;5167592;28;20416;-51
2022/04/30 07:51:33;;;;;;;5.80;3.65;;;;;;;16.88;40.56;102912.06;5167352;28;20430;-49
2022/04/30 07:54:08;;;;;;;7.72;3.42;;;;;;;16.44;41.00;102903.56;5170013;28;20427;-48
2022/04/30 07:56:40;;;;;;;7.63;4.15;;;;;;;16.37;41.23;102952.13;5168472;28;20467;-50
2022/04/30 07:59:12;;;;;;;9.98;4.03;;;;;;;15.98;41.67;102948.50;5167585;28;20422;-51
2022/04/30 08:01:45;;;;;;;5.63;4.50;;;;;;;15.45;42.13;102943.25;5168798;28;20440;-48
2022/04/30 08:04:17;;;;;;;11.00;3.75;;;;;;;15.49;42.35;102950.03;5164047;28;20492;-53
2022/04/30 08:06:51;;;;;;;7.22;4.00;;;;;;;15.35;42.53;102950.34;5167354;28;20450;-49
2022/04/30 08:09:24;;;;;;;7.43;3.80;;;;;;;15.28;42.75;102951.84;5170365;28;20452;-51
2022/04/30 08:11:56;;;;;;;6.72;4.30;;;;;;;15.24;42.79;102948.59;5169715;28;20417;-52
2022/04/30 08:14:28;;;;;;;7.18;3.78;;;;;;;15.18;42.85;102944.63;5168071;28;21015;-51
2022/04/30 08:17:01;;;;;;;8.33;3.60;;;;;;;15.08;43.07;102933.09;5167290;28;20517;-51
2022/04/30 08:19:33;;;;;;;6.60;3.25;;;;;;;14.71;43.17;102879.41;5169862;28;20497;-51
2022/04/30 08:22:07;;;;;;;5.35;3.47;;;;;;;15.01;43.22;102942.53;5168207;28;20755;-52
2022/04/30 08:24:40;;;;;;;10.05;4.13;;;;;;;14.97;43.12;102935.78;5168500;28;20426;-48
2022/04/30 08:27:12;;;;;;;4.88;3.30;;;;;;;14.91;43.34;102938.94;5169822;28;20423;-48
2022/04/30 08:29:45;;;;;;;9.73;3.40;;;;;;;14.85;43.46;102934.13;5167154;28;20415;-47
2022/04/30 08:32:19;;;;;;;8.32;3.53;;;;;;;14.93;43.48;102943.19;5166979;28;20432;-52
2022/04/30 08:34:52;;;;;;;9.10;3.72;;;;;;;14.99;43.46;102941.81;5165478;28;20440;-49
2022/04/30 08:37:26;;;;;;;7.47;3.38;;;;;;;15.08;43.52;102942.84;5168867;28;20916;-52
2022/04/30 08:39:58;;;;;;;6.78;3.65;;;;;;;15.22;43.38;102938.06;5170035;28;20489;-49
2022/04/30 08:42:32;;;;;;;6.43;3.22;;;;;;;15.35;43.40;102942.38;5168606;28;20419;-51
2022/04/30 08:45:08;;;;;;;6.82;3.00;;;;;;;15.41;43.38;102931.19;5172961;28;20437;-49
2022/04/30 08:47:45;;;;;;;7.75;3.40;;;;;;;15.46;43.22;102923.66;5173388;28;20428;-49
2022/04/30 08:50:18;;;;;;;7.72;2.75;;;;;;;15.57;43.27;102936.88;5174310;28;20902;-51
2022/04/30 08:52:52;;;;;;;6.68;3.08;;;;;;;15.70;43.23;102931.41;5174161;28;20454;-49
2022/04/30 08:55:25;;;;;;;6.30;2.70;;;;;;;15.80;43.06;102931.47;5176465;28;20419;-54
2022/04/30 08:57:57;;;;;;;8.75;2.85;;;;;;;15.78;43.03;102917.41;5176377;28;20497;-55
2022/04/30 09:00:38;;;;;;;6.68;3.17;;;;;;;15.73;42.89;102908.97;5167370;28;20896;-54
2022/04/30 09:03:15;;;;;;;9.13;5.60;;;;;;;15.73;43.02;102930.28;5169649;28;20493;-50
2022/04/30 09:05:49;;;;;;;9.05;4.50;;;;;;;15.57;42.99;102899.59;5170003;28;20563;-55
2022/04/30 09:08:22;;;;;;;11.40;4.13;;;;;;;15.63;42.93;102904.41;5159971;28;20498;-51
2022/04/30 09:11:07;;;;;;;6.23;3.40;;;;;;;15.61;42.80;102901.03;5173801;28;20858;-53
2022/04/30 09:13:44;;;;;;;7.78;4.75;;;;;;;15.73;42.80;102923.13;5168926;28;20434;-50
2022/04/30 09:16:21;;;;;;;7.22;3.50;;;;;;;15.59;42.87;102907.47;5173120;28;20412;-42
2022/04/30 09:18:54;;;;;;;5.80;3.17;;;;;;;15.50;43.07;102913.59;5156954;28;20781;-48
2022/04/30 09:21:26;;;;;;;7.45;2.70;;;;;;;15.30;43.17;102912.59;5158556;28;20780;-50
2022/04/30 09:24:08;;;;;;;7.40;3.30;;;;;;;15.23;43.33;102912.28;5141648;28;20860;-51
2022/04/30 09:27:13;;;;;;;6.10;2.73;;;;;;;15.18;43.40;102918.03;5149631;28;20526;-51
2022/04/30 09:29:46;;;;;;;5.38;2.55;;;;;;;15.10;43.40;102920.47;5159042;28;20421;-48
2022/04/30 09:32:20;;;;;;;7.75;3.55;;;;;;;15.05;43.64;102917.38;5160291;28;20407;-50
2022/04/30 09:37:45;;;;;;;5.78;3.03;;;;;;;14.96;43.80;102913.66;5159765;28;20424;-50
2022/04/30 09:40:24;;;;;;;8.17;3.13;;;;;;;14.87;43.90;102895.78;5157541;28;20534;-52
2022/04/30 09:42:57;;;;;;;5.90;3.28;;;;;;;14.96;43.86;102904.84;5160103;28;20413;-49
2022/04/30 09:45:31;;;;;;;6.85;3.35;;;;;;;15.09;43.82;102902.81;5158802;28;20789;-49
2022/04/30 09:53:56;;;;;;;9.70;3.58;;;;;;;15.15;43.90;102899.66;5160103;28;20430;-50
2022/04/30 09:53:58;;;;;;;6.43;2.38;;;;;;;15.40;43.72;102897.56;5157871;28;20520;-49
2022/04/30 09:56:36;;;;;;;9.50;2.70;;;;;;;15.47;43.68;102893.38;5158280;28;20776;-53
2022/04/30 09:59:11;;;;;;;5.78;2.13;;;;;;;15.52;43.47;102895.66;5159384;28;20537;-51
2022/04/30 10:01:47;;;;;;;6.15;2.40;;;;;;;15.61;43.41;102897.53;5162117;28;20879;-50
2022/04/30 10:04:20;;;;;;;6.53;2.25;;;;;;;15.81;43.33;102891.34;5158179;28;20417;-53
2022/04/30 10:06:53;;;;;;;6.57;1.80;;;;;;;15.85;43.23;102884.75;5159472;28;20539;-53
2022/04/30 10:09:31;;;;;;;3.90;1.90;;;;;;;15.84;43.30;102879.56;5160138;28;20421;-50
2022/04/30 10:12:13;;;;;;;4.25;2.20;;;;;;;15.95;43.13;102891.94;5158643;28;20437;-49
2022/04/30 10:14:55;;;;;;;6.30;1.92;;;;;;;15.87;43.28;102884.63;5157537;28;20479;-51
2022/04/30 10:17:33;;;;;;;3.35;1.70;;;;;;;15.96;43.20;102897.16;5166811;28;20416;-52
2022/04/30 10:20:14;;;;;;;6.38;1.95;;;;;;;15.94;43.06;102875.13;5175457;28;20541;-50
2022/04/30 10:22:54;;;;;;;2.75;1.65;;;;;;;15.99;43.10;102872.91;5167858;28;20510;-51
2022/04/30 10:25:37;;;;;;;5.80;1.85;;;;;;;15.76;43.06;102834.94;5155653;28;20423;-53
2022/04/30 10:28:21;;;;;;;5.32;2.08;;;;;;;16.10;42.90;102863.94;5172590;28;20428;-53
2022/04/30 10:31:01;;;;;;;6.53;2.38;;;;;;;16.32;42.70;102874.38;5157779;28;20498;-54
2022/04/30 10:33:35;;;;;;;9.00;1.80;;;;;;;16.37;42.66;102877.47;5159443;28;21108;-49
2022/04/30 10:36:10;;;;;;;3.95;1.90;;;;;;;16.43;42.60;102869.91;5164797;28;20428;-51
2022/04/30 10:38:54;;;;;;;6.65;1.50;;;;;;;16.62;42.52;102874.41;5160943;28;20845;-53
2022/04/30 10:41:27;;;;;;;4.80;1.70;;;;;;;16.65;42.31;102858.94;5157267;28;20512;-51
2022/04/30 10:44:04;;;;;;;5.10;1.73;;;;;;;16.62;42.18;102826.38;5172174;28;20426;-49
2022/04/30 10:46:39;;;;;;;2.03;1.30;;;;;;;16.82;42.19;102876.13;5159284;28;20752;-50
2022/04/30 10:49:12;;;;;;;4.20;1.52;;;;;;;16.96;42.13;102851.66;5156784;28;20481;-50
2022/04/30 10:51:45;;;;;;;5.43;2.00;;;;;;;17.14;41.87;102842.94;5166081;28;20546;-54
2022/04/30 10:54:19;;;;;;;5.15;2.13;;;;;;;17.46;41.46;102824.69;5165226;28;20465;-52
2022/04/30 10:57:00;;;;;;;5.40;1.90;;;;;;;17.93;40.99;102846.03;5159425;28;20521;-51
2022/04/30 10:59:34;;;;;;;5.35;1.65;;;;;;;18.37;40.73;102835.47;5171633;28;20426;-50
2022/04/30 11:02:07;;;;;;;4.10;1.48;;;;;;;18.52;40.51;102841.13;5165782;28;20429;-51
2022/04/30 11:04:44;;;;;;;2.72;1.38;;;;;;;18.51;40.54;102843.94;5173999;28;21078;-50
2022/04/30 11:07:20;;;;;;;3.58;1.23;;;;;;;18.44;40.55;102836.50;5172549;28;20429;-51
2022/04/30 11:09:52;;;;;;;3.78;1.30;;;;;;;18.41;40.60;102836.81;5168509;28;20435;-50
2022/04/30 11:12:31;;;;;;;3.13;1.65;;;;;;;18.36;40.63;102831.06;5173679;28;20421;-50
2022/04/30 11:15:06;;;;;;;2.03;1.42;;;;;;;18.25;40.61;102839.34;5170790;28;20514;-51
2022/04/30 11:17:47;;;;;;;1.95;1.20;;;;;;;18.07;40.84;102822.44;5168572;28;21188;-49
2022/04/30 11:20:23;;;;;;;2.75;1.35;;;;;;;17.98;40.86;102838.38;5142009;28;20563;-53
2022/04/30 11:23:01;;;;;;;4.90;1.70;;;;;;;17.76;41.03;102812.03;5177268;28;20512;-51
2022/04/30 11:25:37;;;;;;;3.47;1.55;;;;;;;17.77;41.07;102827.09;5177638;28;20421;-50
2022/04/30 11:28:11;;;;;;;3.30;1.60;;;;;;;17.48;41.08;102796.00;5172120;28;20427;-51
2022/04/30 11:30:47;;;;;;;3.17;1.70;;;;;;;17.73;40.90;102828.38;5177750;28;20807;-49
2022/04/30 11:33:19;;;;;;;2.38;1.30;;;;;;;17.68;41.06;102826.16;5180788;28;20450;-52
2022/04/30 11:35:55;;;;;;;5.50;1.88;;;;;;;17.79;41.03;102833.16;5175303;28;20923;-49
2022/04/30 11:38:27;;;;;;;4.38;1.48;;;;;;;17.88;41.00;102826.91;5175151;28;20428;-53
2022/04/30 11:41:07;;;;;;;5.60;1.60;;;;;;;17.95;40.85;102811.09;5182527;28;20421;-50
2022/04/30 11:43:40;;;;;;;2.53;1.55;;;;;;;18.09;40.71;102812.44;5183132;28;20415;-49
2022/04/30 11:46:16;;;;;;;4.97;1.73;;;;;;;18.09;40.64;102812.44;5190785;28;20492;-51
2022/04/30 11:48:48;;;;;;;4.13;1.90;;;;;;;17.97;40.79;102809.13;5176221;28;20446;-54
2022/04/30 11:51:22;;;;;;;4.80;2.05;;;;;;;17.78;40.80;102810.09;5176997;28;20520;-50
2022/04/30 11:53:54;;;;;;;6.80;1.73;;;;;;;17.57;41.09;102772.06;5176710;28;20910;-50
2022/04/30 11:56:27;;;;;;;9.67;1.60;;;;;;;17.81;40.97;102804.44;5177823;28;20502;-55
2022/04/30 11:58:59;;;;;;;4.80;1.60;;;;;;;17.91;40.90;102821.25;5177862;28;20440;-55
2022/04/30 12:01:35;;;;;;;2.35;1.63;;;;;;;17.94;41.06;102810.28;5172699;28;20512;-52
2022/04/30 12:04:11;;;;;;;6.75;2.25;;;;;;;18.01;40.88;102796.31;5179331;28;20616;-49
2022/04/30 12:06:44;;;;;;;3.90;1.88;;;;;;;18.24;40.65;102802.03;5178966;28;20504;-50
2022/04/30 12:09:31;;;;;;;4.63;1.65;;;;;;;18.43;40.43;102812.59;5176460;28;20419;-50
2022/04/30 12:12:16;;;;;;;1.65;1.23;;;;;;;18.49;40.34;102840.56;5170609;28;20431;-52
2022/04/30 12:14:50;;;;;;;2.38;1.30;;;;;;;18.31;40.31;102789.75;5145826;28;20423;-54
2022/04/30 12:17:30;;;;;;;5.43;1.30;;;;;;;18.54;40.09;102800.81;5166082;28;21397;-49
2022/04/30 12:26:04;;;;;;;3.25;1.40;;;;;;;18.73;39.89;102800.66;5104986;28;20550;-49
2022/04/30 12:28:50;;;;;;;6.88;2.40;;;;;;;18.86;39.92;102800.25;5163330;28;20543;-50
2022/04/30 12:31:28;;;;;;;5.68;2.30;;;;;;;18.93;39.66;102792.44;5161830;28;20422;-50